sensor_id;sensor_type;location;lat;lon;timestamp;pressure;altitude;pressure_sealevel;temperature;humidity
49397;BME280;35615;41.410;2.194;2023-05-02T00:02:26;101713.91;;;21.12;57.91
49397;BME280;35615;41.410;2.194;2023-05-02T00:04:53;101706.97;;;21.17;57.44
49397;BME280;35615;41.410;2.194;2023-05-02T00:07:22;101705.31;;;21.27;56.79
49397;BME280;35615;41.410;2.194;2023-05-02T00:09:52;101704.47;;;21.30;56.71
49397;BME280;35615;41.410;2.194;2023-05-02T00:12:19;101701.75;;;21.22;57.07
49397;BME280;35615;41.410;2.194;2023-05-02T00:14:47;101697.47;;;21.29;56.74
49397;BME280;35615;41.410;2.194;2023-05-02T00:17:20;101695.75;;;21.34;56.35
49397;BME280;35615;41.410;2.194;2023-05-02T00:19:47;101683.41;;;21.27;56.58
49397;BME280;35615;41.410;2.194;2023-05-02T00:22:15;101680.63;;;21.16;56.85
49397;BME280;35615;41.410;2.194;2023-05-02T00:24:42;101674.56;;;21.20;56.54
49397;BME280;35615;41.410;2.194;2023-05-02T00:27:09;101677.09;;;21.09;57.13
49397;BME280;35615;41.410;2.194;2023-05-02T00:29:36;101671.00;;;21.16;56.54
49397;BME280;35615;41.410;2.194;2023-05-02T00:32:04;101665.63;;;21.04;56.79
49397;BME280;35615;41.410;2.194;2023-05-02T00:34:31;101663.88;;;21.03;56.87
49397;BME280;35615;41.410;2.194;2023-05-02T00:36:58;101658.59;;;20.99;57.35
49397;BME280;35615;41.410;2.194;2023-05-02T00:39:26;101657.72;;;20.97;57.02
49397;BME280;35615;41.410;2.194;2023-05-02T00:41:59;101643.75;;;21.04;57.01
49397;BME280;35615;41.410;2.194;2023-05-02T00:44:27;101642.84;;;21.02;56.92
49397;BME280;35615;41.410;2.194;2023-05-02T00:46:55;101648.09;;;21.02;57.03
49397;BME280;35615;41.410;2.194;2023-05-02T00:49:22;101643.75;;;21.05;57.23
49397;BME280;35615;41.410;2.194;2023-05-02T00:51:50;101637.69;;;21.12;56.98
49397;BME280;35615;41.410;2.194;2023-05-02T00:54:17;101639.50;;;21.18;56.89
49397;BME280;35615;41.410;2.194;2023-05-02T00:56:44;101634.22;;;21.15;56.81
49397;BME280;35615;41.410;2.194;2023-05-02T01:02:49;101634.09;;;21.00;57.19
49397;BME280;35615;41.410;2.194;2023-05-02T01:05:31;101638.47;;;21.02;57.25
49397;BME280;35615;41.410;2.194;2023-05-02T01:08:24;101620.06;;;20.98;57.16
49397;BME280;35615;41.410;2.194;2023-05-02T01:11:13;101617.34;;;20.88;57.03
49397;BME280;35615;41.410;2.194;2023-05-02T01:13:42;101615.59;;;20.87;57.14
49397;BME280;35615;41.410;2.194;2023-05-02T01:16:13;101613.59;;;20.65;57.43
49397;BME280;35615;41.410;2.194;2023-05-02T01:18:42;101612.00;;;20.82;56.78
49397;BME280;35615;41.410;2.194;2023-05-02T01:21:11;101610.16;;;20.71;57.19
49397;BME280;35615;41.410;2.194;2023-05-02T01:27:00;101604.88;;;20.68;57.42
49397;BME280;35615;41.410;2.194;2023-05-02T01:29:19;101597.97;;;20.79;56.65
49397;BME280;35615;41.410;2.194;2023-05-02T01:31:50;101596.22;;;20.78;57.03
49397;BME280;35615;41.410;2.194;2023-05-02T01:34:19;101608.34;;;20.65;57.10
49397;BME280;35615;41.410;2.194;2023-05-02T01:36:49;101595.97;;;20.53;57.49
49397;BME280;35615;41.410;2.194;2023-05-02T01:39:20;101600.25;;;20.45;57.90
49397;BME280;35615;41.410;2.194;2023-05-02T01:41:49;101601.88;;;20.37;58.05
49397;BME280;35615;41.410;2.194;2023-05-02T01:44:21;101600.84;;;20.24;57.70
49397;BME280;35615;41.410;2.194;2023-05-02T01:46:50;101594.00;;;20.39;57.65
49397;BME280;35615;41.410;2.194;2023-05-02T01:49:21;101588.69;;;20.31;57.53
49397;BME280;35615;41.410;2.194;2023-05-02T01:51:54;101593.13;;;20.38;57.59
49397;BME280;35615;41.410;2.194;2023-05-02T01:54:28;101594.75;;;20.25;57.80
49397;BME280;35615;41.410;2.194;2023-05-02T01:56:57;101594.84;;;20.33;57.57
49397;BME280;35615;41.410;2.194;2023-05-02T02:02:42;101599.00;;;20.16;57.90
49397;BME280;35615;41.410;2.194;2023-05-02T02:05:13;101605.91;;;20.09;58.35
49397;BME280;35615;41.410;2.194;2023-05-02T02:07:42;101599.13;;;20.28;57.56
49397;BME280;35615;41.410;2.194;2023-05-02T02:10:10;101605.19;;;20.22;57.79
49397;BME280;35615;41.410;2.194;2023-05-02T02:12:49;101595.69;;;20.29;57.78
49397;BME280;35615;41.410;2.194;2023-05-02T02:15:23;101598.66;;;19.90;59.01
49397;BME280;35615;41.410;2.194;2023-05-02T02:17:59;101598.84;;;20.03;58.67
49397;BME280;35615;41.410;2.194;2023-05-02T02:20:30;101604.19;;;20.11;58.27
49397;BME280;35615;41.410;2.194;2023-05-02T02:22:59;101593.66;;;20.07;58.61
49397;BME280;35615;41.410;2.194;2023-05-02T02:25:30;101601.63;;;20.17;58.33
49397;BME280;35615;41.410;2.194;2023-05-02T02:27:57;101593.72;;;20.13;58.33
49397;BME280;35615;41.410;2.194;2023-05-02T02:30:26;101602.50;;;20.16;58.02
49397;BME280;35615;41.410;2.194;2023-05-02T02:32:53;101587.75;;;20.27;58.08
49397;BME280;35615;41.410;2.194;2023-05-02T02:35:21;101589.59;;;20.33;57.59
49397;BME280;35615;41.410;2.194;2023-05-02T02:38:05;101587.72;;;20.24;57.87
49397;BME280;35615;41.410;2.194;2023-05-02T02:40:46;101583.38;;;20.26;58.04
49397;BME280;35615;41.410;2.194;2023-05-02T02:43:57;101584.28;;;20.28;58.05
49397;BME280;35615;41.410;2.194;2023-05-02T02:46:33;101580.81;;;20.31;57.51
49397;BME280;35615;41.410;2.194;2023-05-02T02:51:53;101582.50;;;20.26;57.37
49397;BME280;35615;41.410;2.194;2023-05-02T02:55:03;101587.41;;;19.97;57.93
49397;BME280;35615;41.410;2.194;2023-05-02T02:57:39;101584.03;;;20.07;57.51
49397;BME280;35615;41.410;2.194;2023-05-02T03:00:19;101590.91;;;19.97;57.61
49397;BME280;35615;41.410;2.194;2023-05-02T03:02:47;101594.47;;;20.04;57.28
49397;BME280;35615;41.410;2.194;2023-05-02T03:05:16;101593.59;;;20.03;57.50
49397;BME280;35615;41.410;2.194;2023-05-02T03:07:48;101590.75;;;19.87;57.50
49397;BME280;35615;41.410;2.194;2023-05-02T03:10:21;101596.88;;;19.86;57.54
49397;BME280;35615;41.410;2.194;2023-05-02T03:12:49;101590.69;;;19.84;57.25
49397;BME280;35615;41.410;2.194;2023-05-02T03:18:19;101587.31;;;19.91;57.30
49397;BME280;35615;41.410;2.194;2023-05-02T03:20:47;101591.63;;;19.84;57.49
49397;BME280;35615;41.410;2.194;2023-05-02T03:23:19;101588.13;;;19.85;57.33
49397;BME280;35615;41.410;2.194;2023-05-02T03:25:48;101589.03;;;19.89;57.34
49397;BME280;35615;41.410;2.194;2023-05-02T03:28:20;101588.16;;;19.88;57.37
49397;BME280;35615;41.410;2.194;2023-05-02T03:30:51;101594.31;;;19.92;57.11
49397;BME280;35615;41.410;2.194;2023-05-02T03:33:22;101590.75;;;19.87;57.48
49397;BME280;35615;41.410;2.194;2023-05-02T03:35:58;101591.56;;;19.83;57.57
49397;BME280;35615;41.410;2.194;2023-05-02T03:38:28;101591.53;;;19.80;57.76
49397;BME280;35615;41.410;2.194;2023-05-02T03:41:02;101584.63;;;19.86;57.36
49397;BME280;35615;41.410;2.194;2023-05-02T03:43:33;101594.16;;;19.81;57.56
49397;BME280;35615;41.410;2.194;2023-05-02T03:46:11;101593.31;;;19.82;57.46
49397;BME280;35615;41.410;2.194;2023-05-02T03:48:42;101595.16;;;19.89;57.36
49397;BME280;35615;41.410;2.194;2023-05-02T03:51:15;101595.16;;;19.88;57.54
49397;BME280;35615;41.410;2.194;2023-05-02T03:53:56;101585.25;;;19.68;57.61
49397;BME280;35615;41.410;2.194;2023-05-02T03:56:27;101588.78;;;19.72;57.30
49397;BME280;35615;41.410;2.194;2023-05-02T03:59:12;101585.75;;;19.44;57.89
49397;BME280;35615;41.410;2.194;2023-05-02T04:01:40;101591.97;;;19.51;57.85
49397;BME280;35615;41.410;2.194;2023-05-02T04:04:10;101578.88;;;19.53;57.46
49397;BME280;35615;41.410;2.194;2023-05-02T04:06:44;101578.78;;;19.45;57.68
49397;BME280;35615;41.410;2.194;2023-05-02T04:09:12;101577.28;;;19.61;57.39
49397;BME280;35615;41.410;2.194;2023-05-02T04:11:49;101570.09;;;19.51;57.52
49397;BME280;35615;41.410;2.194;2023-05-02T04:14:17;101571.81;;;19.49;57.35
49397;BME280;35615;41.410;2.194;2023-05-02T04:16:49;101569.88;;;19.34;57.58
49397;BME280;35615;41.410;2.194;2023-05-02T04:19:23;101569.53;;;19.14;58.10
49397;BME280;35615;41.410;2.194;2023-05-02T04:21:50;101577.34;;;19.09;58.17
49397;BME280;35615;41.410;2.194;2023-05-02T04:24:17;101579.84;;;19.03;57.88
49397;BME280;35615;41.410;2.194;2023-05-02T04:26:44;101583.25;;;18.96;58.59
49397;BME280;35615;41.410;2.194;2023-05-02T04:29:13;101602.69;;;19.12;58.10
49397;BME280;35615;41.410;2.194;2023-05-02T04:31:41;101603.44;;;19.05;58.29
49397;BME280;35615;41.410;2.194;2023-05-02T04:34:10;101611.22;;;19.00;58.19
49397;BME280;35615;41.410;2.194;2023-05-02T04:36:46;101608.63;;;19.02;58.01
49397;BME280;35615;41.410;2.194;2023-05-02T04:39:19;101621.63;;;18.96;57.97
49397;BME280;35615;41.410;2.194;2023-05-02T04:41:58;101624.25;;;18.96;58.08
49397;BME280;35615;41.410;2.194;2023-05-02T04:44:27;101618.63;;;18.74;58.47
49397;BME280;35615;41.410;2.194;2023-05-02T04:46:55;101619.50;;;18.75;58.77
49397;BME280;35615;41.410;2.194;2023-05-02T04:49:22;101627.97;;;18.63;58.48
49397;BME280;35615;41.410;2.194;2023-05-02T04:51:49;101630.47;;;18.58;58.55
49397;BME280;35615;41.410;2.194;2023-05-02T04:54:20;101635.16;;;18.73;58.12
49397;BME280;35615;41.410;2.194;2023-05-02T04:56:47;101646.88;;;18.50;58.72
49397;BME280;35615;41.410;2.194;2023-05-02T04:59:15;101650.47;;;18.53;58.60
49397;BME280;35615;41.410;2.194;2023-05-02T05:01:43;101649.50;;;18.50;58.79
49397;BME280;35615;41.410;2.194;2023-05-02T05:04:11;101659.47;;;18.66;58.19
49397;BME280;35615;41.410;2.194;2023-05-02T05:06:38;101667.06;;;18.55;58.39
49397;BME280;35615;41.410;2.194;2023-05-02T05:09:06;101658.78;;;18.34;59.09
49397;BME280;35615;41.410;2.194;2023-05-02T05:11:35;101667.78;;;18.48;58.72
49397;BME280;35615;41.410;2.194;2023-05-02T05:14:02;101670.38;;;18.47;58.63
49397;BME280;35615;41.410;2.194;2023-05-02T05:16:33;101663.13;;;18.34;59.29
49397;BME280;35615;41.410;2.194;2023-05-02T05:19:00;101666.28;;;18.61;58.25
49397;BME280;35615;41.410;2.194;2023-05-02T05:21:27;101671.16;;;18.41;58.69
49397;BME280;35615;41.410;2.194;2023-05-02T05:23:56;101677.50;;;18.52;58.91
49397;BME280;35615;41.410;2.194;2023-05-02T05:26:26;101673.81;;;18.44;58.82
49397;BME280;35615;41.410;2.194;2023-05-02T05:28:54;101691.50;;;18.56;58.97
49397;BME280;35615;41.410;2.194;2023-05-02T05:31:24;101678.50;;;18.61;58.73
49397;BME280;35615;41.410;2.194;2023-05-02T05:33:55;101678.97;;;18.83;58.45
49397;BME280;35615;41.410;2.194;2023-05-02T05:36:24;101689.41;;;18.80;58.36
49397;BME280;35615;41.410;2.194;2023-05-02T05:38:52;101683.41;;;18.84;58.31
49397;BME280;35615;41.410;2.194;2023-05-02T05:41:21;101690.31;;;18.82;58.43
49397;BME280;35615;41.410;2.194;2023-05-02T05:43:54;101691.56;;;19.03;57.87
49397;BME280;35615;41.410;2.194;2023-05-02T05:46:26;101697.31;;;18.83;57.84
49397;BME280;35615;41.410;2.194;2023-05-02T05:48:53;101685.59;;;19.10;57.33
49397;BME280;35615;41.410;2.194;2023-05-02T05:51:21;101691.38;;;18.92;57.39
49397;BME280;35615;41.410;2.194;2023-05-02T05:53:51;101682.19;;;19.14;56.66
49397;BME280;35615;41.410;2.194;2023-05-02T05:56:19;101679.94;;;19.35;56.63
49397;BME280;35615;41.410;2.194;2023-05-02T05:58:56;101678.97;;;19.29;56.03
49397;BME280;35615;41.410;2.194;2023-05-02T06:01:23;101684.16;;;19.27;56.20
49397;BME280;35615;41.410;2.194;2023-05-02T06:03:51;101679.00;;;19.32;55.59
49397;BME280;35615;41.410;2.194;2023-05-02T06:06:18;101682.56;;;19.35;55.65
49397;BME280;35615;41.410;2.194;2023-05-02T06:08:45;101684.22;;;19.29;55.74
49397;BME280;35615;41.410;2.194;2023-05-02T06:11:13;101682.75;;;19.48;55.47
49397;BME280;35615;41.410;2.194;2023-05-02T06:13:40;101674.06;;;19.50;55.60
49397;BME280;35615;41.410;2.194;2023-05-02T06:16:08;101676.75;;;19.53;55.85
49397;BME280;35615;41.410;2.194;2023-05-02T06:18:38;101681.09;;;19.53;55.89
49397;BME280;35615;41.410;2.194;2023-05-02T06:21:08;101687.59;;;19.75;55.42
49397;BME280;35615;41.410;2.194;2023-05-02T06:23:38;101685.00;;;19.75;54.98
49397;BME280;35615;41.410;2.194;2023-05-02T06:26:07;101682.56;;;19.88;55.37
49397;BME280;35615;41.410;2.194;2023-05-02T06:28:35;101690.50;;;19.93;54.85
49397;BME280;35615;41.410;2.194;2023-05-02T06:31:04;101690.50;;;19.94;54.91
49397;BME280;35615;41.410;2.194;2023-05-02T06:33:35;101690.00;;;20.18;54.83
49397;BME280;35615;41.410;2.194;2023-05-02T06:36:05;101691.66;;;20.13;54.67
49397;BME280;35615;41.410;2.194;2023-05-02T06:38:35;101695.31;;;20.24;55.00
49397;BME280;35615;41.410;2.194;2023-05-02T06:41:12;101686.59;;;20.27;54.50
49397;BME280;35615;41.410;2.194;2023-05-02T06:43:45;101690.56;;;19.97;54.66
49397;BME280;35615;41.410;2.194;2023-05-02T06:46:15;101691.69;;;20.15;54.66
49397;BME280;35615;41.410;2.194;2023-05-02T06:48:43;101686.56;;;20.25;54.47
49397;BME280;35615;41.410;2.194;2023-05-02T06:51:19;101693.66;;;20.29;54.60
49397;BME280;35615;41.410;2.194;2023-05-02T06:53:48;101694.38;;;20.18;55.04
49397;BME280;35615;41.410;2.194;2023-05-02T06:56:16;101698.25;;;20.46;54.19
49397;BME280;35615;41.410;2.194;2023-05-02T06:58:43;101701.56;;;20.33;54.96
49397;BME280;35615;41.410;2.194;2023-05-02T07:01:10;101696.53;;;20.49;54.22
49397;BME280;35615;41.410;2.194;2023-05-02T07:03:41;101689.47;;;20.42;54.69
49397;BME280;35615;41.410;2.194;2023-05-02T07:06:09;101694.75;;;20.47;54.85
49397;BME280;35615;41.410;2.194;2023-05-02T07:08:38;101698.53;;;20.67;54.61
49397;BME280;35615;41.410;2.194;2023-05-02T07:11:05;101704.66;;;20.69;54.64
49397;BME280;35615;41.410;2.194;2023-05-02T07:13:33;101706.53;;;20.79;54.91
49397;BME280;35615;41.410;2.194;2023-05-02T07:16:00;101708.31;;;20.82;54.71
49397;BME280;35615;41.410;2.194;2023-05-02T07:18:28;101714.38;;;20.73;55.36
49397;BME280;35615;41.410;2.194;2023-05-02T07:20:57;101718.03;;;20.89;55.20
49397;BME280;35615;41.410;2.194;2023-05-02T07:23:25;101720.88;;;21.10;54.44
49397;BME280;35615;41.410;2.194;2023-05-02T07:25:52;101710.44;;;21.16;54.91
49397;BME280;35615;41.410;2.194;2023-05-02T07:28:19;101719.25;;;21.22;54.71
49397;BME280;35615;41.410;2.194;2023-05-02T07:30:46;101721.81;;;21.17;55.02
49397;BME280;35615;41.410;2.194;2023-05-02T07:33:14;101727.06;;;21.14;55.18
49397;BME280;35615;41.410;2.194;2023-05-02T07:35:41;101714.69;;;21.05;54.90
49397;BME280;35615;41.410;2.194;2023-05-02T07:38:09;101715.56;;;21.04;55.14
49397;BME280;35615;41.410;2.194;2023-05-02T07:40:37;101709.69;;;21.28;55.19
49397;BME280;35615;41.410;2.194;2023-05-02T07:43:04;101716.78;;;21.37;54.92
49397;BME280;35615;41.410;2.194;2023-05-02T07:45:31;101718.59;;;21.41;54.85
49397;BME280;35615;41.410;2.194;2023-05-02T07:47:58;101705.56;;;21.53;54.37
49397;BME280;35615;41.410;2.194;2023-05-02T07:50:26;101710.03;;;21.63;54.23
49397;BME280;35615;41.410;2.194;2023-05-02T07:52:57;101707.50;;;21.79;53.78
49397;BME280;35615;41.410;2.194;2023-05-02T07:55:25;101711.88;;;21.73;53.29
49397;BME280;35615;41.410;2.194;2023-05-02T07:57:57;101717.28;;;21.95;52.82
49397;BME280;35615;41.410;2.194;2023-05-02T08:00:24;101718.28;;;22.14;52.95
49397;BME280;35615;41.410;2.194;2023-05-02T08:02:51;101719.25;;;22.28;52.17
49397;BME280;35615;41.410;2.194;2023-05-02T08:05:18;101714.03;;;22.39;52.31
49397;BME280;35615;41.410;2.194;2023-05-02T08:07:46;101713.09;;;22.26;51.93
49397;BME280;35615;41.410;2.194;2023-05-02T08:10:15;101714.91;;;22.31;51.67
49397;BME280;35615;41.410;2.194;2023-05-02T08:12:46;101718.47;;;22.41;51.71
49397;BME280;35615;41.410;2.194;2023-05-02T08:15:13;101717.66;;;22.60;51.79
49397;BME280;35615;41.410;2.194;2023-05-02T08:17:43;101718.59;;;22.76;50.66
49397;BME280;35615;41.410;2.194;2023-05-02T08:20:10;101711.69;;;23.09;49.97
49397;BME280;35615;41.410;2.194;2023-05-02T08:22:39;101710.84;;;23.34;49.56
49397;BME280;35615;41.410;2.194;2023-05-02T08:25:06;101711.69;;;23.06;48.56
49397;BME280;35615;41.410;2.194;2023-05-02T08:27:33;101708.22;;;23.28;48.35
49397;BME280;35615;41.410;2.194;2023-05-02T08:30:01;101710.88;;;23.59;47.56
49397;BME280;35615;41.410;2.194;2023-05-02T08:32:30;101709.13;;;23.68;46.81
49397;BME280;35615;41.410;2.194;2023-05-02T08:34:58;101708.19;;;24.04;46.29
49397;BME280;35615;41.410;2.194;2023-05-02T08:37:25;101709.00;;;24.42;45.45
49397;BME280;35615;41.410;2.194;2023-05-02T08:39:52;101705.41;;;24.62;44.93
49397;BME280;35615;41.410;2.194;2023-05-02T08:42:22;101703.56;;;24.71;44.22
49397;BME280;35615;41.410;2.194;2023-05-02T08:44:49;101708.81;;;24.81;43.49
49397;BME280;35615;41.410;2.194;2023-05-02T08:47:18;101701.72;;;24.89;41.98
49397;BME280;35615;41.410;2.194;2023-05-02T08:49:45;101691.94;;;25.08;41.61
49397;BME280;35615;41.410;2.194;2023-05-02T08:52:13;101704.22;;;25.18;40.72
49397;BME280;35615;41.410;2.194;2023-05-02T08:54:41;101713.09;;;25.01;41.13
49397;BME280;35615;41.410;2.194;2023-05-02T08:57:10;101710.31;;;25.30;40.08
49397;BME280;35615;41.410;2.194;2023-05-02T08:59:37;101710.94;;;25.61;40.11
49397;BME280;35615;41.410;2.194;2023-05-02T09:04:53;101707.41;;;25.62;39.05
49397;BME280;35615;41.410;2.194;2023-05-02T09:07:21;101709.19;;;25.61;38.73
49397;BME280;35615;41.410;2.194;2023-05-02T09:09:49;101706.50;;;25.64;38.90
49397;BME280;35615;41.410;2.194;2023-05-02T09:12:16;101700.25;;;25.74;39.36
49397;BME280;35615;41.410;2.194;2023-05-02T09:14:43;101714.28;;;25.83;38.54
49397;BME280;35615;41.410;2.194;2023-05-02T09:17:11;101711.81;;;25.60;37.69
49397;BME280;35615;41.410;2.194;2023-05-02T09:19:38;101710.72;;;25.88;38.47
49397;BME280;35615;41.410;2.194;2023-05-02T09:22:06;101705.06;;;26.22;38.41
49397;BME280;35615;41.410;2.194;2023-05-02T09:24:33;101707.66;;;26.28;36.94
49397;BME280;35615;41.410;2.194;2023-05-02T09:27:02;101699.88;;;26.11;37.29
49397;BME280;35615;41.410;2.194;2023-05-02T09:29:31;101696.97;;;26.39;37.50
49397;BME280;35615;41.410;2.194;2023-05-02T09:32:04;101702.81;;;26.63;36.53
49397;BME280;35615;41.410;2.194;2023-05-02T09:34:34;101706.53;;;26.49;36.56
49397;BME280;35615;41.410;2.194;2023-05-02T09:37:03;101703.88;;;26.50;36.53
49397;BME280;35615;41.410;2.194;2023-05-02T09:39:31;101698.94;;;26.89;35.60
49397;BME280;35615;41.410;2.194;2023-05-02T09:41:58;101702.22;;;26.42;36.08
49397;BME280;35615;41.410;2.194;2023-05-02T09:44:35;101691.91;;;26.86;35.40
49397;BME280;35615;41.410;2.194;2023-05-02T09:47:03;101696.31;;;26.87;36.07
49397;BME280;35615;41.410;2.194;2023-05-02T09:49:53;101697.75;;;27.11;34.55
49397;BME280;35615;41.410;2.194;2023-05-02T09:52:20;101702.16;;;26.46;36.17
49397;BME280;35615;41.410;2.194;2023-05-02T09:54:50;101697.47;;;26.67;35.10
49397;BME280;35615;41.410;2.194;2023-05-02T09:57:18;101693.59;;;26.90;34.84
49397;BME280;35615;41.410;2.194;2023-05-02T09:59:54;101690.47;;;26.59;35.58
49397;BME280;35615;41.410;2.194;2023-05-02T10:02:24;101696.25;;;26.90;35.41
49397;BME280;35615;41.410;2.194;2023-05-02T10:04:56;101689.78;;;27.11;34.56
49397;BME280;35615;41.410;2.194;2023-05-02T10:07:28;101689.16;;;26.91;34.88
49397;BME280;35615;41.410;2.194;2023-05-02T10:10:00;101689.75;;;26.50;35.18
49397;BME280;35615;41.410;2.194;2023-05-02T10:12:29;101678.41;;;27.03;35.13
49397;BME280;35615;41.410;2.194;2023-05-02T10:15:01;101682.47;;;26.66;35.18
49397;BME280;35615;41.410;2.194;2023-05-02T10:17:30;101673.22;;;26.92;34.87
49397;BME280;35615;41.410;2.194;2023-05-02T10:20:02;101676.78;;;26.91;34.99
49397;BME280;35615;41.410;2.194;2023-05-02T10:22:30;101669.38;;;27.15;35.10
49397;BME280;35615;41.410;2.194;2023-05-02T10:24:59;101669.69;;;26.95;34.27
49397;BME280;35615;41.410;2.194;2023-05-02T10:27:31;101674.50;;;26.66;35.43
49397;BME280;35615;41.410;2.194;2023-05-02T10:29:59;101666.31;;;26.13;35.53
49397;BME280;35615;41.410;2.194;2023-05-02T10:32:29;101665.59;;;26.71;35.21
49397;BME280;35615;41.410;2.194;2023-05-02T10:35:06;101665.94;;;27.10;34.52
49397;BME280;35615;41.410;2.194;2023-05-02T10:37:37;101659.06;;;27.49;34.33
49397;BME280;35615;41.410;2.194;2023-05-02T10:40:09;101659.88;;;27.00;35.28
49397;BME280;35615;41.410;2.194;2023-05-02T10:42:42;101650.50;;;27.35;35.33
49397;BME280;35615;41.410;2.194;2023-05-02T10:45:31;101654.28;;;27.20;34.77
49397;BME280;35615;41.410;2.194;2023-05-02T10:48:19;101643.97;;;27.54;34.59
49397;BME280;35615;41.410;2.194;2023-05-02T10:50:50;101647.00;;;26.74;35.63
49397;BME280;35615;41.410;2.194;2023-05-02T10:56:19;101646.13;;;27.32;34.91
49397;BME280;35615;41.410;2.194;2023-05-02T10:59:57;101639.69;;;27.45;34.85
49397;BME280;35615;41.410;2.194;2023-05-02T11:05:03;101625.31;;;27.57;34.74
49397;BME280;35615;41.410;2.194;2023-05-02T11:07:34;101622.13;;;27.88;34.67
49397;BME280;35615;41.410;2.194;2023-05-02T11:12:49;101621.25;;;28.32;33.71
49397;BME280;35615;41.410;2.194;2023-05-02T11:18:00;101614.06;;;28.35;34.14
49397;BME280;35615;41.410;2.194;2023-05-02T11:20:29;101617.78;;;27.84;34.20
49397;BME280;35615;41.410;2.194;2023-05-02T11:25:47;101608.81;;;27.89;34.94
49397;BME280;35615;41.410;2.194;2023-05-02T11:31:09;101610.22;;;28.07;33.32
49397;BME280;35615;41.410;2.194;2023-05-02T11:34:02;101606.06;;;27.92;33.39
49397;BME280;35615;41.410;2.194;2023-05-02T11:36:31;101609.38;;;27.57;35.60
49397;BME280;35615;41.410;2.194;2023-05-02T11:39:03;101611.91;;;27.15;36.85
49397;BME280;35615;41.410;2.194;2023-05-02T11:41:40;101612.38;;;27.40;37.11
49397;BME280;35615;41.410;2.194;2023-05-02T11:44:09;101611.03;;;26.56;38.10
49397;BME280;35615;41.410;2.194;2023-05-02T11:46:37;101612.25;;;26.29;39.01
49397;BME280;35615;41.410;2.194;2023-05-02T11:49:08;101608.44;;;27.12;37.62
49397;BME280;35615;41.410;2.194;2023-05-02T11:51:37;101607.75;;;26.38;39.30
49397;BME280;35615;41.410;2.194;2023-05-02T11:54:06;101612.97;;;26.44;39.64
49397;BME280;35615;41.410;2.194;2023-05-02T11:56:33;101604.81;;;26.60;39.09
49397;BME280;35615;41.410;2.194;2023-05-02T11:59:02;101598.56;;;27.20;38.45
49397;BME280;35615;41.410;2.194;2023-05-02T12:01:30;101598.94;;;26.96;39.11
49397;BME280;35615;41.410;2.194;2023-05-02T12:04:04;101600.47;;;26.53;39.89
49397;BME280;35615;41.410;2.194;2023-05-02T12:06:36;101596.34;;;26.31;39.79
49397;BME280;35615;41.410;2.194;2023-05-02T12:09:12;101599.06;;;26.25;38.85
49397;BME280;35615;41.410;2.194;2023-05-02T12:11:45;101599.56;;;25.85;39.44
49397;BME280;35615;41.410;2.194;2023-05-02T12:14:25;101595.59;;;26.20;39.00
49397;BME280;35615;41.410;2.194;2023-05-02T12:16:54;101595.34;;;26.41;37.28
49397;BME280;35615;41.410;2.194;2023-05-02T12:19:22;101588.72;;;26.73;36.84
49397;BME280;35615;41.410;2.194;2023-05-02T12:21:50;101593.47;;;27.08;36.39
49397;BME280;35615;41.410;2.194;2023-05-02T12:24:17;101591.03;;;26.92;36.29
49397;BME280;35615;41.410;2.194;2023-05-02T12:26:47;101595.47;;;26.90;36.78
49397;BME280;35615;41.410;2.194;2023-05-02T12:29:16;101580.56;;;26.22;38.26
49397;BME280;35615;41.410;2.194;2023-05-02T12:31:52;101600.31;;;26.64;37.78
49397;BME280;35615;41.410;2.194;2023-05-02T12:34:32;101590.47;;;26.74;37.62
49397;BME280;35615;41.410;2.194;2023-05-02T12:37:01;101593.66;;;26.96;36.97
49397;BME280;35615;41.410;2.194;2023-05-02T12:39:41;101601.69;;;26.25;37.93
49397;BME280;35615;41.410;2.194;2023-05-02T12:42:10;101598.44;;;26.71;37.55
49397;BME280;35615;41.410;2.194;2023-05-02T12:44:42;101595.31;;;26.44;37.44
49397;BME280;35615;41.410;2.194;2023-05-02T12:47:11;101603.38;;;26.32;37.56
49397;BME280;35615;41.410;2.194;2023-05-02T12:49:57;101608.41;;;26.55;36.83
49397;BME280;35615;41.410;2.194;2023-05-02T12:52:48;101608.56;;;26.43;35.75
49397;BME280;35615;41.410;2.194;2023-05-02T12:55:16;101596.28;;;26.37;36.11
49397;BME280;35615;41.410;2.194;2023-05-02T12:57:44;101594.00;;;26.71;35.36
49397;BME280;35615;41.410;2.194;2023-05-02T13:00:12;101603.19;;;26.50;36.17
49397;BME280;35615;41.410;2.194;2023-05-02T13:02:42;101587.81;;;26.74;35.62
49397;BME280;35615;41.410;2.194;2023-05-02T13:05:22;101597.75;;;26.58;35.93
49397;BME280;35615;41.410;2.194;2023-05-02T13:07:49;101600.31;;;25.96;36.62
49397;BME280;35615;41.410;2.194;2023-05-02T13:10:17;101594.19;;;25.91;37.06
49397;BME280;35615;41.410;2.194;2023-05-02T13:12:45;101591.75;;;25.73;38.06
49397;BME280;35615;41.410;2.194;2023-05-02T13:15:14;101587.28;;;26.50;37.18
49397;BME280;35615;41.410;2.194;2023-05-02T13:17:41;101596.38;;;26.29;37.96
49397;BME280;35615;41.410;2.194;2023-05-02T13:20:09;101588.91;;;25.90;39.43
49397;BME280;35615;41.410;2.194;2023-05-02T13:22:37;101586.34;;;25.84;39.88
49397;BME280;35615;41.410;2.194;2023-05-02T13:25:05;101595.06;;;25.90;39.71
49397;BME280;35615;41.410;2.194;2023-05-02T13:27:32;101586.31;;;25.85;39.32
49397;BME280;35615;41.410;2.194;2023-05-02T13:30:03;101596.25;;;26.40;38.70
49397;BME280;35615;41.410;2.194;2023-05-02T13:32:35;101587.66;;;26.20;39.04
49397;BME280;35615;41.410;2.194;2023-05-02T13:35:02;101594.56;;;26.31;39.60
49397;BME280;35615;41.410;2.194;2023-05-02T13:37:29;101589.78;;;25.90;40.44
49397;BME280;35615;41.410;2.194;2023-05-02T13:40:00;101592.53;;;25.84;40.66
49397;BME280;35615;41.410;2.194;2023-05-02T13:42:33;101590.97;;;25.62;41.22
49397;BME280;35615;41.410;2.194;2023-05-02T13:45:07;101594.28;;;25.85;40.60